sensor_id;sensor_type;location;lat;lon;timestamp;temperature;humidity
58153;DHT22;43967;51.634;5.566;2022-12-18T00:03:46;18.10;46.00
58153;DHT22;43967;51.634;5.566;2022-12-18T00:08:47;18.10;45.90
58153;DHT22;43967;51.634;5.566;2022-12-18T00:13:50;18.10;45.70
58153;DHT22;43967;51.634;5.566;2022-12-18T00:18:54;18.10;46.30
58153;DHT22;43967;51.634;5.566;2022-12-18T00:23:55;18.10;45.40
58153;DHT22;43967;51.634;5.566;2022-12-18T00:29:01;18.10;45.30
58153;DHT22;43967;51.634;5.566;2022-12-18T00:34:03;18.00;45.10
58153;DHT22;43967;51.634;5.566;2022-12-18T00:39:04;18.00;45.10
58153;DHT22;43967;51.634;5.566;2022-12-18T00:44:07;18.00;45.00
58153;DHT22;43967;51.634;5.566;2022-12-18T00:49:11;18.00;44.90
58153;DHT22;43967;51.634;5.566;2022-12-18T00:54:13;17.90;44.70
58153;DHT22;43967;51.634;5.566;2022-12-18T00:59:14;17.90;44.70
58153;DHT22;43967;51.634;5.566;2022-12-18T01:04:15;17.90;44.60
58153;DHT22;43967;51.634;5.566;2022-12-18T01:09:16;17.90;44.50
58153;DHT22;43967;51.634;5.566;2022-12-18T01:14:18;17.90;44.40
58153;DHT22;43967;51.634;5.566;2022-12-18T01:19:19;17.80;44.30
58153;DHT22;43967;51.634;5.566;2022-12-18T01:24:20;17.80;44.10
58153;DHT22;43967;51.634;5.566;2022-12-18T01:29:21;17.80;44.10
58153;DHT22;43967;51.634;5.566;2022-12-18T01:34:25;17.80;44.20
58153;DHT22;43967;51.634;5.566;2022-12-18T01:39:26;17.80;44.00
58153;DHT22;43967;51.634;5.566;2022-12-18T01:55:18;17.70;43.70
58153;DHT22;43967;51.634;5.566;2022-12-18T02:00:21;17.70;43.70
58153;DHT22;43967;51.634;5.566;2022-12-18T02:06:26;17.70;43.80
58153;DHT22;43967;51.634;5.566;2022-12-18T02:11:20;17.60;43.70
58153;DHT22;43967;51.634;5.566;2022-12-18T02:16:38;17.60;43.60
58153;DHT22;43967;51.634;5.566;2022-12-18T02:22:07;17.60;43.60
58153;DHT22;43967;51.634;5.566;2022-12-18T02:27:13;17.60;43.60
58153;DHT22;43967;51.634;5.566;2022-12-18T02:32:18;17.60;43.50
58153;DHT22;43967;51.634;5.566;2022-12-18T02:37:21;17.60;43.40
58153;DHT22;43967;51.634;5.566;2022-12-18T02:42:24;17.50;43.40
58153;DHT22;43967;51.634;5.566;2022-12-18T02:47:30;17.50;43.40
58153;DHT22;43967;51.634;5.566;2022-12-18T02:52:38;17.50;43.30
58153;DHT22;43967;51.634;5.566;2022-12-18T02:57:46;17.50;43.30
58153;DHT22;43967;51.634;5.566;2022-12-18T03:08:19;17.50;43.30
58153;DHT22;43967;51.634;5.566;2022-12-18T03:13:37;17.50;43.20
58153;DHT22;43967;51.634;5.566;2022-12-18T03:18:47;17.40;43.10
58153;DHT22;43967;51.634;5.566;2022-12-18T03:23:50;17.40;43.10
58153;DHT22;43967;51.634;5.566;2022-12-18T03:28:57;17.40;43.10
58153;DHT22;43967;51.634;5.566;2022-12-18T03:34:02;17.40;42.90
58153;DHT22;43967;51.634;5.566;2022-12-18T03:39:04;17.40;43.00
58153;DHT22;43967;51.634;5.566;2022-12-18T03:44:11;17.30;42.90
58153;DHT22;43967;51.634;5.566;2022-12-18T03:49:36;17.30;42.80
58153;DHT22;43967;51.634;5.566;2022-12-18T03:54:40;17.30;42.80
58153;DHT22;43967;51.634;5.566;2022-12-18T03:59:44;17.30;42.80
58153;DHT22;43967;51.634;5.566;2022-12-18T04:04:46;17.30;42.60
58153;DHT22;43967;51.634;5.566;2022-12-18T04:09:49;17.20;42.60
58153;DHT22;43967;51.634;5.566;2022-12-18T04:14:51;17.20;42.70
58153;DHT22;43967;51.634;5.566;2022-12-18T04:19:52;17.20;42.60
58153;DHT22;43967;51.634;5.566;2022-12-18T04:24:54;17.20;42.60
58153;DHT22;43967;51.634;5.566;2022-12-18T04:29:55;17.20;42.50
58153;DHT22;43967;51.634;5.566;2022-12-18T04:34:56;17.20;42.50
58153;DHT22;43967;51.634;5.566;2022-12-18T04:39:57;17.20;42.50
58153;DHT22;43967;51.634;5.566;2022-12-18T04:44:58;17.20;42.50
58153;DHT22;43967;51.634;5.566;2022-12-18T04:49:59;17.20;42.50
58153;DHT22;43967;51.634;5.566;2022-12-18T04:55:01;17.10;42.40
58153;DHT22;43967;51.634;5.566;2022-12-18T05:00:03;17.10;42.40
58153;DHT22;43967;51.634;5.566;2022-12-18T05:05:04;17.10;42.40
58153;DHT22;43967;51.634;5.566;2022-12-18T05:10:06;17.10;42.40
58153;DHT22;43967;51.634;5.566;2022-12-18T05:15:07;17.10;42.20
58153;DHT22;43967;51.634;5.566;2022-12-18T05:20:09;17.00;42.70
58153;DHT22;43967;51.634;5.566;2022-12-18T05:25:10;17.00;42.20
58153;DHT22;43967;51.634;5.566;2022-12-18T05:30:12;17.00;42.20
58153;DHT22;43967;51.634;5.566;2022-12-18T05:35:13;17.00;42.10
58153;DHT22;43967;51.634;5.566;2022-12-18T05:40:14;17.00;42.20
58153;DHT22;43967;51.634;5.566;2022-12-18T05:45:15;17.00;42.10
58153;DHT22;43967;51.634;5.566;2022-12-18T05:50:16;17.00;42.10
58153;DHT22;43967;51.634;5.566;2022-12-18T05:55:17;16.90;42.10
58153;DHT22;43967;51.634;5.566;2022-12-18T06:00:19;16.90;42.00
58153;DHT22;43967;51.634;5.566;2022-12-18T06:05:20;16.90;42.00
58153;DHT22;43967;51.634;5.566;2022-12-18T06:10:21;16.90;42.00
58153;DHT22;43967;51.634;5.566;2022-12-18T06:15:22;16.90;42.00
58153;DHT22;43967;51.634;5.566;2022-12-18T06:20:23;16.90;42.00
58153;DHT22;43967;51.634;5.566;2022-12-18T06:25:24;16.80;41.90
58153;DHT22;43967;51.634;5.566;2022-12-18T06:30:25;16.80;41.90
58153;DHT22;43967;51.634;5.566;2022-12-18T06:35:26;16.80;41.90
58153;DHT22;43967;51.634;5.566;2022-12-18T06:40:27;16.80;41.90
58153;DHT22;43967;51.634;5.566;2022-12-18T06:45:29;16.80;41.90
58153;DHT22;43967;51.634;5.566;2022-12-18T06:50:30;16.80;41.90
58153;DHT22;43967;51.634;5.566;2022-12-18T06:55:31;16.80;42.50
58153;DHT22;43967;51.634;5.566;2022-12-18T07:00:32;16.80;41.80
58153;DHT22;43967;51.634;5.566;2022-12-18T07:05:33;16.70;41.70
58153;DHT22;43967;51.634;5.566;2022-12-18T07:10:41;16.70;41.80
58153;DHT22;43967;51.634;5.566;2022-12-18T07:15:43;16.70;41.80
58153;DHT22;43967;51.634;5.566;2022-12-18T07:20:44;16.70;41.80
58153;DHT22;43967;51.634;5.566;2022-12-18T07:25:45;16.70;41.70
58153;DHT22;43967;51.634;5.566;2022-12-18T07:30:46;16.70;41.70
58153;DHT22;43967;51.634;5.566;2022-12-18T07:35:47;16.60;41.70
58153;DHT22;43967;51.634;5.566;2022-12-18T07:40:48;16.60;41.70
58153;DHT22;43967;51.634;5.566;2022-12-18T07:45:50;16.60;41.70
58153;DHT22;43967;51.634;5.566;2022-12-18T07:50:51;16.60;41.70
58153;DHT22;43967;51.634;5.566;2022-12-18T07:56:04;16.60;41.70
58153;DHT22;43967;51.634;5.566;2022-12-18T08:01:08;16.60;41.70
58153;DHT22;43967;51.634;5.566;2022-12-18T08:06:09;16.60;41.70
58153;DHT22;43967;51.634;5.566;2022-12-18T08:11:10;16.60;41.70
58153;DHT22;43967;51.634;5.566;2022-12-18T08:16:12;16.50;41.20
58153;DHT22;43967;51.634;5.566;2022-12-18T08:21:15;16.50;41.40
58153;DHT22;43967;51.634;5.566;2022-12-18T08:26:17;16.40;41.50
58153;DHT22;43967;51.634;5.566;2022-12-18T08:31:19;16.40;41.70
58153;DHT22;43967;51.634;5.566;2022-12-18T08:36:21;16.40;42.50
58153;DHT22;43967;51.634;5.566;2022-12-18T08:41:23;16.40;43.10
58153;DHT22;43967;51.634;5.566;2022-12-18T08:46:25;16.40;43.90
58153;DHT22;43967;51.634;5.566;2022-12-18T08:51:27;16.50;44.90
58153;DHT22;43967;51.634;5.566;2022-12-18T08:56:28;16.50;50.20
58153;DHT22;43967;51.634;5.566;2022-12-18T09:01:29;16.70;52.10
58153;DHT22;43967;51.634;5.566;2022-12-18T09:06:30;16.70;52.10
58153;DHT22;43967;51.634;5.566;2022-12-18T09:11:32;16.80;51.40
58153;DHT22;43967;51.634;5.566;2022-12-18T09:16:33;16.80;51.50
58153;DHT22;43967;51.634;5.566;2022-12-18T09:21:37;16.90;51.60
58153;DHT22;43967;51.634;5.566;2022-12-18T09:26:39;16.90;51.20
58153;DHT22;43967;51.634;5.566;2022-12-18T09:31:40;16.90;50.90
58153;DHT22;43967;51.634;5.566;2022-12-18T09:36:41;16.90;51.10
58153;DHT22;43967;51.634;5.566;2022-12-18T09:41:53;17.00;51.30
58153;DHT22;43967;51.634;5.566;2022-12-18T09:57:34;17.00;51.90
58153;DHT22;43967;51.634;5.566;2022-12-18T10:02:38;17.10;52.20
58153;DHT22;43967;51.634;5.566;2022-12-18T10:08:13;17.10;52.30
58153;DHT22;43967;51.634;5.566;2022-12-18T10:13:33;17.10;52.50
58153;DHT22;43967;51.634;5.566;2022-12-18T10:19:01;17.20;52.70
58153;DHT22;43967;51.634;5.566;2022-12-18T10:29:16;17.10;52.70
58153;DHT22;43967;51.634;5.566;2022-12-18T10:34:17;17.20;52.60
58153;DHT22;43967;51.634;5.566;2022-12-18T10:39:20;17.20;52.70
58153;DHT22;43967;51.634;5.566;2022-12-18T10:44:23;17.30;52.80
58153;DHT22;43967;51.634;5.566;2022-12-18T10:49:33;17.30;52.80
58153;DHT22;43967;51.634;5.566;2022-12-18T10:54:35;17.30;52.80
58153;DHT22;43967;51.634;5.566;2022-12-18T10:59:51;17.30;52.80
58153;DHT22;43967;51.634;5.566;2022-12-18T11:04:52;17.40;52.90
58153;DHT22;43967;51.634;5.566;2022-12-18T11:10:03;17.40;52.90
58153;DHT22;43967;51.634;5.566;2022-12-18T11:15:04;17.30;52.70
58153;DHT22;43967;51.634;5.566;2022-12-18T11:20:19;17.40;52.70
58153;DHT22;43967;51.634;5.566;2022-12-18T11:25:21;17.30;52.50
58153;DHT22;43967;51.634;5.566;2022-12-18T11:30:36;17.40;52.50
58153;DHT22;43967;51.634;5.566;2022-12-18T11:35:51;17.40;52.80
58153;DHT22;43967;51.634;5.566;2022-12-18T11:46:39;17.50;52.60
58153;DHT22;43967;51.634;5.566;2022-12-18T11:52:00;17.60;52.60
58153;DHT22;43967;51.634;5.566;2022-12-18T12:08:03;17.80;52.70
58153;DHT22;43967;51.634;5.566;2022-12-18T12:24:24;17.70;52.20
58153;DHT22;43967;51.634;5.566;2022-12-18T12:29:54;17.70;52.20
58153;DHT22;43967;51.634;5.566;2022-12-18T12:35:07;17.80;51.90
58153;DHT22;43967;51.634;5.566;2022-12-18T12:40:13;17.80;51.80
58153;DHT22;43967;51.634;5.566;2022-12-18T12:50:55;17.80;51.60
58153;DHT22;43967;51.634;5.566;2022-12-18T12:55:57;17.70;51.20
58153;DHT22;43967;51.634;5.566;2022-12-18T13:01:09;17.60;50.60
58153;DHT22;43967;51.634;5.566;2022-12-18T13:06:25;17.50;50.20
58153;DHT22;43967;51.634;5.566;2022-12-18T13:11:42;17.50;49.70
58153;DHT22;43967;51.634;5.566;2022-12-18T13:16:43;17.40;49.10
58153;DHT22;43967;51.634;5.566;2022-12-18T13:21:53;17.40;48.20
58153;DHT22;43967;51.634;5.566;2022-12-18T13:26:54;17.30;48.60
58153;DHT22;43967;51.634;5.566;2022-12-18T13:31:59;17.40;48.30
58153;DHT22;43967;51.634;5.566;2022-12-18T13:37:39;17.50;48.00
58153;DHT22;43967;51.634;5.566;2022-12-18T13:42:41;17.60;47.90
58153;DHT22;43967;51.634;5.566;2022-12-18T13:47:43;17.60;48.50
58153;DHT22;43967;51.634;5.566;2022-12-18T13:53:04;17.50;48.10
58153;DHT22;43967;51.634;5.566;2022-12-18T13:58:06;17.20;48.10
58153;DHT22;43967;51.634;5.566;2022-12-18T14:03:27;17.20;48.90
58153;DHT22;43967;51.634;5.566;2022-12-18T14:08:39;17.20;50.00
58153;DHT22;43967;51.634;5.566;2022-12-18T14:13:42;17.40;50.50
58153;DHT22;43967;51.634;5.566;2022-12-18T14:18:56;17.40;51.40
58153;DHT22;43967;51.634;5.566;2022-12-18T14:24:12;17.50;51.50
58153;DHT22;43967;51.634;5.566;2022-12-18T14:29:19;17.50;52.60
58153;DHT22;43967;51.634;5.566;2022-12-18T14:34:29;17.60;53.20
58153;DHT22;43967;51.634;5.566;2022-12-18T14:39:33;17.70;53.30
58153;DHT22;43967;51.634;5.566;2022-12-18T14:44:35;17.50;52.70
58153;DHT22;43967;51.634;5.566;2022-12-18T15:23:23;18.40;54.10
58153;DHT22;43967;51.634;5.566;2022-12-18T15:38:54;18.30;54.60
58153;DHT22;43967;51.634;5.566;2022-12-18T15:43:55;18.40;54.70
58153;DHT22;43967;51.634;5.566;2022-12-18T15:48:57;18.50;55.00
58153;DHT22;43967;51.634;5.566;2022-12-18T15:54:00;18.60;55.10
58153;DHT22;43967;51.634;5.566;2022-12-18T15:59:02;18.60;55.20
58153;DHT22;43967;51.634;5.566;2022-12-18T16:04:05;18.70;55.20
58153;DHT22;43967;51.634;5.566;2022-12-18T16:09:06;18.80;55.30
58153;DHT22;43967;51.634;5.566;2022-12-18T16:14:18;18.80;55.30
58153;DHT22;43967;51.634;5.566;2022-12-18T16:19:22;18.70;55.40
58153;DHT22;43967;51.634;5.566;2022-12-18T16:24:28;18.80;55.40
58153;DHT22;43967;51.634;5.566;2022-12-18T16:29:30;18.70;55.30
58153;DHT22;43967;51.634;5.566;2022-12-18T16:34:32;18.60;55.10
58153;DHT22;43967;51.634;5.566;2022-12-18T16:39:34;18.50;55.10
58153;DHT22;43967;51.634;5.566;2022-12-18T16:44:36;18.50;55.30
58153;DHT22;43967;51.634;5.566;2022-12-18T16:49:37;18.60;55.40
58153;DHT22;43967;51.634;5.566;2022-12-18T16:54:38;18.60;55.60
58153;DHT22;43967;51.634;5.566;2022-12-18T16:59:39;18.70;55.70
58153;DHT22;43967;51.634;5.566;2022-12-18T17:04:41;18.50;55.90
58153;DHT22;43967;51.634;5.566;2022-12-18T17:09:42;18.70;55.70
58153;DHT22;43967;51.634;5.566;2022-12-18T17:14:43;18.60;55.30
58153;DHT22;43967;51.634;5.566;2022-12-18T17:19:44;18.50;55.10
58153;DHT22;43967;51.634;5.566;2022-12-18T17:24:46;18.40;54.80
58153;DHT22;43967;51.634;5.566;2022-12-18T17:29:47;18.40;54.60
58153;DHT22;43967;51.634;5.566;2022-12-18T17:34:48;18.30;54.30
58153;DHT22;43967;51.634;5.566;2022-12-18T17:39:49;18.30;54.80
58153;DHT22;43967;51.634;5.566;2022-12-18T17:44:50;18.30;53.90
58153;DHT22;43967;51.634;5.566;2022-12-18T17:49:52;18.20;53.60
58153;DHT22;43967;51.634;5.566;2022-12-18T17:54:53;18.20;53.40
58153;DHT22;43967;51.634;5.566;2022-12-18T17:59:54;18.20;53.20
58153;DHT22;43967;51.634;5.566;2022-12-18T18:04:55;18.10;53.00
58153;DHT22;43967;51.634;5.566;2022-12-18T18:09:56;18.10;52.80
58153;DHT22;43967;51.634;5.566;2022-12-18T18:14:57;18.00;52.60
58153;DHT22;43967;51.634;5.566;2022-12-18T18:19:58;18.00;52.40
58153;DHT22;43967;51.634;5.566;2022-12-18T18:24:59;18.00;52.30
58153;DHT22;43967;51.634;5.566;2022-12-18T18:30:00;17.90;52.10
58153;DHT22;43967;51.634;5.566;2022-12-18T18:35:01;17.90;52.00
58153;DHT22;43967;51.634;5.566;2022-12-18T18:40:03;17.90;51.90
58153;DHT22;43967;51.634;5.566;2022-12-18T18:45:04;17.90;51.70
58153;DHT22;43967;51.634;5.566;2022-12-18T18:50:06;17.90;51.50
58153;DHT22;43967;51.634;5.566;2022-12-18T18:55:07;17.80;51.40
58153;DHT22;43967;51.634;5.566;2022-12-18T19:00:09;17.80;51.20
58153;DHT22;43967;51.634;5.566;2022-12-18T19:05:10;17.80;51.10
58153;DHT22;43967;51.634;5.566;2022-12-18T19:10:11;17.80;51.00
58153;DHT22;43967;51.634;5.566;2022-12-18T19:15:12;17.80;50.90
58153;DHT22;43967;51.634;5.566;2022-12-18T19:20:14;17.70;50.70
58153;DHT22;43967;51.634;5.566;2022-12-18T19:25:15;17.70;50.60
58153;DHT22;43967;51.634;5.566;2022-12-18T19:30:16;17.70;50.50
58153;DHT22;43967;51.634;5.566;2022-12-18T19:35:17;17.60;50.40
58153;DHT22;43967;51.634;5.566;2022-12-18T19:40:18;17.60;50.40
58153;DHT22;43967;51.634;5.566;2022-12-18T19:45:22;17.60;50.20
58153;DHT22;43967;51.634;5.566;2022-12-18T19:50:23;17.60;50.10
58153;DHT22;43967;51.634;5.566;2022-12-18T19:55:24;17.60;50.00
58153;DHT22;43967;51.634;5.566;2022-12-18T20:00:26;17.60;50.00
58153;DHT22;43967;51.634;5.566;2022-12-18T20:05:27;17.60;49.90
58153;DHT22;43967;51.634;5.566;2022-12-18T20:10:28;17.50;49.70
58153;DHT22;43967;51.634;5.566;2022-12-18T20:15:29;17.50;49.60
58153;DHT22;43967;51.634;5.566;2022-12-18T20:20:30;17.50;49.60
58153;DHT22;43967;51.634;5.566;2022-12-18T20:25:31;17.50;50.50
58153;DHT22;43967;51.634;5.566;2022-12-18T20:30:32;17.50;50.40
58153;DHT22;43967;51.634;5.566;2022-12-18T20:35:34;17.60;50.60
58153;DHT22;43967;51.634;5.566;2022-12-18T20:40:35;17.70;51.00
58153;DHT22;43967;51.634;5.566;2022-12-18T20:45:36;17.70;51.20
58153;DHT22;43967;51.634;5.566;2022-12-18T20:50:37;17.70;51.70
58153;DHT22;43967;51.634;5.566;2022-12-18T20:55:41;17.80;51.80
58153;DHT22;43967;51.634;5.566;2022-12-18T21:00:42;17.70;51.80
58153;DHT22;43967;51.634;5.566;2022-12-18T21:05:43;17.80;51.90
58153;DHT22;43967;51.634;5.566;2022-12-18T21:10:45;17.80;51.80
58153;DHT22;43967;51.634;5.566;2022-12-18T21:15:46;17.80;51.70
58153;DHT22;43967;51.634;5.566;2022-12-18T21:20:47;17.80;51.60
58153;DHT22;43967;51.634;5.566;2022-12-18T21:25:48;17.90;51.50
58153;DHT22;43967;51.634;5.566;2022-12-18T21:30:49;17.90;51.60
58153;DHT22;43967;51.634;5.566;2022-12-18T21:35:50;17.90;51.70
58153;DHT22;43967;51.634;5.566;2022-12-18T21:40:51;17.90;51.60
58153;DHT22;43967;51.634;5.566;2022-12-18T21:45:55;17.90;51.60
58153;DHT22;43967;51.634;5.566;2022-12-18T21:50:56;17.90;51.60
58153;DHT22;43967;51.634;5.566;2022-12-18T21:55:58;17.80;51.30
58153;DHT22;43967;51.634;5.566;2022-12-18T22:00:59;17.80;51.30
58153;DHT22;43967;51.634;5.566;2022-12-18T22:06:00;17.80;51.20
58153;DHT22;43967;51.634;5.566;2022-12-18T22:11:01;17.80;51.00
58153;DHT22;43967;51.634;5.566;2022-12-18T22:16:02;17.80;50.90
58153;DHT22;43967;51.634;5.566;2022-12-18T22:21:04;17.80;50.80
58153;DHT22;43967;51.634;5.566;2022-12-18T22:26:06;17.70;50.60
58153;DHT22;43967;51.634;5.566;2022-12-18T22:31:07;17.70;50.60
58153;DHT22;43967;51.634;5.566;2022-12-18T22:36:08;17.70;50.50
58153;DHT22;43967;51.634;5.566;2022-12-18T22:41:09;17.70;50.40
58153;DHT22;43967;51.634;5.566;2022-12-18T22:46:14;17.70;50.50
58153;DHT22;43967;51.634;5.566;2022-12-18T22:51:17;17.70;50.30
58153;DHT22;43967;51.634;5.566;2022-12-18T22:56:18;17.70;50.40
58153;DHT22;43967;51.634;5.566;2022-12-18T23:01:21;17.60;50.20
58153;DHT22;43967;51.634;5.566;2022-12-18T23:06:24;17.60;50.10
58153;DHT22;43967;51.634;5.566;2022-12-18T23:11:26;17.60;50.00
58153;DHT22;43967;51.634;5.566;2022-12-18T23:16:27;17.60;50.00
58153;DHT22;43967;51.634;5.566;2022-12-18T23:21:28;17.60;49.90
58153;DHT22;43967;51.634;5.566;2022-12-18T23:26:30;17.60;49.90
58153;DHT22;43967;51.634;5.566;2022-12-18T23:31:33;17.50;49.70
58153;DHT22;43967;51.634;5.566;2022-12-18T23:36:34;17.50;49.70
58153;DHT22;43967;51.634;5.566;2022-12-18T23:41:36;17.50;49.70
58153;DHT22;43967;51.634;5.566;2022-12-18T23:46:37;17.50;49.70
58153;DHT22;43967;51.634;5.566;2022-12-18T23:51:38;17.50;49.60
58153;DHT22;43967;51.634;5.566;2022-12-18T23:56:39;17.50;49.60
